sensor_id;sensor_type;location;lat;lon;timestamp;P1;durP1;ratioP1;P2;durP2;ratioP2
17618;SDS011;8928;51.678;6.074;2022-07-29T00:02:29;3.90;;;1.10;;
17618;SDS011;8928;51.678;6.074;2022-07-29T00:05:17;4.53;;;1.23;;
17618;SDS011;8928;51.678;6.074;2022-07-29T00:08:04;6.63;;;1.20;;
17618;SDS011;8928;51.678;6.074;2022-07-29T00:10:51;4.83;;;1.10;;
17618;SDS011;8928;51.678;6.074;2022-07-29T00:13:38;3.93;;;1.20;;
17618;SDS011;8928;51.678;6.074;2022-07-29T00:16:27;6.53;;;1.17;;
17618;SDS011;8928;51.678;6.074;2022-07-29T00:19:14;7.37;;;1.40;;
17618;SDS011;8928;51.678;6.074;2022-07-29T00:22:01;3.77;;;1.10;;
17618;SDS011;8928;51.678;6.074;2022-07-29T00:24:48;7.93;;;1.37;;
17618;SDS011;8928;51.678;6.074;2022-07-29T00:27:35;5.50;;;1.10;;
17618;SDS011;8928;51.678;6.074;2022-07-29T00:30:23;5.83;;;1.13;;
17618;SDS011;8928;51.678;6.074;2022-07-29T00:33:11;4.17;;;1.10;;
17618;SDS011;8928;51.678;6.074;2022-07-29T00:35:59;4.67;;;1.17;;
17618;SDS011;8928;51.678;6.074;2022-07-29T00:38:45;10.60;;;1.27;;
17618;SDS011;8928;51.678;6.074;2022-07-29T00:41:32;2.27;;;1.00;;
17618;SDS011;8928;51.678;6.074;2022-07-29T00:44:19;6.00;;;1.17;;
17618;SDS011;8928;51.678;6.074;2022-07-29T00:47:06;5.00;;;1.00;;
17618;SDS011;8928;51.678;6.074;2022-07-29T00:49:55;6.30;;;1.30;;
17618;SDS011;8928;51.678;6.074;2022-07-29T00:52:42;4.13;;;1.10;;
17618;SDS011;8928;51.678;6.074;2022-07-29T00:55:29;4.63;;;1.37;;
17618;SDS011;8928;51.678;6.074;2022-07-29T00:58:17;3.70;;;1.10;;
17618;SDS011;8928;51.678;6.074;2022-07-29T01:01:04;6.53;;;1.40;;
17618;SDS011;8928;51.678;6.074;2022-07-29T01:03:51;5.47;;;1.13;;
17618;SDS011;8928;51.678;6.074;2022-07-29T01:06:39;5.20;;;1.23;;
17618;SDS011;8928;51.678;6.074;2022-07-29T01:09:26;5.57;;;1.20;;
17618;SDS011;8928;51.678;6.074;2022-07-29T01:12:15;9.30;;;1.30;;
17618;SDS011;8928;51.678;6.074;2022-07-29T01:15:05;6.07;;;1.63;;
17618;SDS011;8928;51.678;6.074;2022-07-29T01:17:57;3.83;;;1.13;;
17618;SDS011;8928;51.678;6.074;2022-07-29T01:21:02;8.47;;;1.40;;
17618;SDS011;8928;51.678;6.074;2022-07-29T01:27:26;5.83;;;1.33;;
17618;SDS011;8928;51.678;6.074;2022-07-29T01:30:29;8.83;;;1.43;;
17618;SDS011;8928;51.678;6.074;2022-07-29T01:33:17;6.17;;;1.47;;
17618;SDS011;8928;51.678;6.074;2022-07-29T01:36:21;9.50;;;1.83;;
17618;SDS011;8928;51.678;6.074;2022-07-29T01:39:14;9.20;;;2.10;;
17618;SDS011;8928;51.678;6.074;2022-07-29T01:42:07;6.77;;;2.00;;
17618;SDS011;8928;51.678;6.074;2022-07-29T01:45:02;7.43;;;2.17;;
17618;SDS011;8928;51.678;6.074;2022-07-29T01:47:56;8.90;;;2.70;;
17618;SDS011;8928;51.678;6.074;2022-07-29T01:50:47;4.93;;;2.40;;
17618;SDS011;8928;51.678;6.074;2022-07-29T01:53:37;7.40;;;2.80;;
17618;SDS011;8928;51.678;6.074;2022-07-29T01:56:30;5.07;;;2.80;;
17618;SDS011;8928;51.678;6.074;2022-07-29T01:59:19;7.63;;;3.20;;
17618;SDS011;8928;51.678;6.074;2022-07-29T02:02:08;9.90;;;3.53;;
17618;SDS011;8928;51.678;6.074;2022-07-29T02:04:59;10.43;;;3.50;;
17618;SDS011;8928;51.678;6.074;2022-07-29T02:07:48;11.10;;;3.60;;
17618;SDS011;8928;51.678;6.074;2022-07-29T02:10:38;11.20;;;4.00;;
17618;SDS011;8928;51.678;6.074;2022-07-29T02:13:28;8.27;;;3.73;;
17618;SDS011;8928;51.678;6.074;2022-07-29T02:16:17;9.80;;;3.93;;
17618;SDS011;8928;51.678;6.074;2022-07-29T02:19:08;7.87;;;3.93;;
17618;SDS011;8928;51.678;6.074;2022-07-29T02:21:58;12.47;;;3.80;;
17618;SDS011;8928;51.678;6.074;2022-07-29T02:24:46;10.20;;;4.50;;
17618;SDS011;8928;51.678;6.074;2022-07-29T02:27:36;8.10;;;4.53;;
17618;SDS011;8928;51.678;6.074;2022-07-29T02:30:26;11.00;;;4.70;;
17618;SDS011;8928;51.678;6.074;2022-07-29T02:33:15;10.53;;;4.43;;
17618;SDS011;8928;51.678;6.074;2022-07-29T02:36:04;10.03;;;4.57;;
17618;SDS011;8928;51.678;6.074;2022-07-29T02:38:53;9.63;;;4.80;;
17618;SDS011;8928;51.678;6.074;2022-07-29T02:41:43;11.30;;;4.83;;
17618;SDS011;8928;51.678;6.074;2022-07-29T02:44:33;11.23;;;4.87;;
17618;SDS011;8928;51.678;6.074;2022-07-29T02:47:21;9.70;;;4.80;;
17618;SDS011;8928;51.678;6.074;2022-07-29T02:50:14;9.00;;;4.70;;
17618;SDS011;8928;51.678;6.074;2022-07-29T02:53:07;11.63;;;4.57;;
17618;SDS011;8928;51.678;6.074;2022-07-29T02:56:01;5.87;;;4.00;;
17618;SDS011;8928;51.678;6.074;2022-07-29T02:58:54;8.83;;;4.00;;
17618;SDS011;8928;51.678;6.074;2022-07-29T03:01:43;11.13;;;4.17;;
17618;SDS011;8928;51.678;6.074;2022-07-29T03:04:31;8.77;;;3.87;;
17618;SDS011;8928;51.678;6.074;2022-07-29T03:07:20;8.13;;;3.83;;
17618;SDS011;8928;51.678;6.074;2022-07-29T03:10:08;9.53;;;4.27;;
17618;SDS011;8928;51.678;6.074;2022-07-29T03:12:57;12.87;;;4.23;;
17618;SDS011;8928;51.678;6.074;2022-07-29T03:15:45;12.60;;;4.50;;
17618;SDS011;8928;51.678;6.074;2022-07-29T03:21:10;9.77;;;3.90;;
17618;SDS011;8928;51.678;6.074;2022-07-29T03:23:57;12.40;;;4.00;;
17618;SDS011;8928;51.678;6.074;2022-07-29T03:26:44;10.30;;;4.20;;
17618;SDS011;8928;51.678;6.074;2022-07-29T03:29:33;10.67;;;4.10;;
17618;SDS011;8928;51.678;6.074;2022-07-29T03:32:20;9.43;;;4.50;;
17618;SDS011;8928;51.678;6.074;2022-07-29T03:35:07;7.03;;;4.20;;
17618;SDS011;8928;51.678;6.074;2022-07-29T03:37:54;8.53;;;4.43;;
17618;SDS011;8928;51.678;6.074;2022-07-29T03:40:42;7.20;;;4.57;;
17618;SDS011;8928;51.678;6.074;2022-07-29T03:43:35;7.33;;;4.83;;
17618;SDS011;8928;51.678;6.074;2022-07-29T03:46:26;12.73;;;4.80;;
17618;SDS011;8928;51.678;6.074;2022-07-29T03:49:15;10.87;;;5.10;;
17618;SDS011;8928;51.678;6.074;2022-07-29T03:52:04;8.43;;;4.37;;
17618;SDS011;8928;51.678;6.074;2022-07-29T03:54:52;9.17;;;4.97;;
17618;SDS011;8928;51.678;6.074;2022-07-29T03:57:39;15.37;;;5.87;;
17618;SDS011;8928;51.678;6.074;2022-07-29T04:00:27;15.27;;;5.70;;
17618;SDS011;8928;51.678;6.074;2022-07-29T04:03:17;9.63;;;5.60;;
17618;SDS011;8928;51.678;6.074;2022-07-29T04:06:05;9.67;;;5.43;;
17618;SDS011;8928;51.678;6.074;2022-07-29T04:08:53;9.80;;;5.37;;
17618;SDS011;8928;51.678;6.074;2022-07-29T04:11:40;10.50;;;6.13;;
17618;SDS011;8928;51.678;6.074;2022-07-29T04:14:28;13.80;;;6.10;;
17618;SDS011;8928;51.678;6.074;2022-07-29T04:17:15;10.10;;;5.80;;
17618;SDS011;8928;51.678;6.074;2022-07-29T04:20:04;13.10;;;6.07;;
17618;SDS011;8928;51.678;6.074;2022-07-29T04:22:52;11.87;;;6.30;;
17618;SDS011;8928;51.678;6.074;2022-07-29T04:25:39;13.17;;;6.00;;
17618;SDS011;8928;51.678;6.074;2022-07-29T04:28:28;10.87;;;6.60;;
17618;SDS011;8928;51.678;6.074;2022-07-29T04:31:15;12.53;;;6.27;;
17618;SDS011;8928;51.678;6.074;2022-07-29T04:34:02;10.20;;;5.90;;
17618;SDS011;8928;51.678;6.074;2022-07-29T04:36:50;11.53;;;5.80;;
17618;SDS011;8928;51.678;6.074;2022-07-29T04:39:37;11.57;;;5.60;;
17618;SDS011;8928;51.678;6.074;2022-07-29T04:42:24;10.23;;;5.97;;
17618;SDS011;8928;51.678;6.074;2022-07-29T04:45:11;10.10;;;6.73;;
17618;SDS011;8928;51.678;6.074;2022-07-29T04:47:58;11.40;;;6.60;;
17618;SDS011;8928;51.678;6.074;2022-07-29T04:50:46;11.70;;;7.47;;
17618;SDS011;8928;51.678;6.074;2022-07-29T04:53:34;12.43;;;7.43;;
17618;SDS011;8928;51.678;6.074;2022-07-29T04:56:21;11.17;;;6.77;;
17618;SDS011;8928;51.678;6.074;2022-07-29T04:59:08;10.37;;;6.50;;
17618;SDS011;8928;51.678;6.074;2022-07-29T05:01:55;10.77;;;6.47;;
17618;SDS011;8928;51.678;6.074;2022-07-29T05:04:42;13.37;;;6.33;;
17618;SDS011;8928;51.678;6.074;2022-07-29T05:07:29;10.67;;;6.07;;
17618;SDS011;8928;51.678;6.074;2022-07-29T05:10:18;11.43;;;5.97;;
17618;SDS011;8928;51.678;6.074;2022-07-29T05:13:05;12.93;;;6.37;;
17618;SDS011;8928;51.678;6.074;2022-07-29T05:15:53;13.20;;;6.70;;
17618;SDS011;8928;51.678;6.074;2022-07-29T05:18:40;12.67;;;6.87;;
17618;SDS011;8928;51.678;6.074;2022-07-29T05:21:27;12.27;;;8.37;;
17618;SDS011;8928;51.678;6.074;2022-07-29T05:24:14;14.53;;;7.40;;
17618;SDS011;8928;51.678;6.074;2022-07-29T05:27:03;9.67;;;6.40;;
17618;SDS011;8928;51.678;6.074;2022-07-29T05:29:50;8.83;;;5.20;;
17618;SDS011;8928;51.678;6.074;2022-07-29T05:32:37;9.73;;;5.00;;
17618;SDS011;8928;51.678;6.074;2022-07-29T05:35:24;13.87;;;5.10;;
17618;SDS011;8928;51.678;6.074;2022-07-29T05:38:11;11.53;;;5.00;;
17618;SDS011;8928;51.678;6.074;2022-07-29T05:40:58;12.20;;;5.50;;
17618;SDS011;8928;51.678;6.074;2022-07-29T05:43:47;12.17;;;5.27;;
17618;SDS011;8928;51.678;6.074;2022-07-29T05:46:34;12.43;;;5.63;;
17618;SDS011;8928;51.678;6.074;2022-07-29T05:49:21;11.97;;;5.23;;
17618;SDS011;8928;51.678;6.074;2022-07-29T05:52:08;11.47;;;5.20;;
17618;SDS011;8928;51.678;6.074;2022-07-29T05:54:55;9.43;;;5.23;;
17618;SDS011;8928;51.678;6.074;2022-07-29T05:57:42;9.73;;;4.80;;
17618;SDS011;8928;51.678;6.074;2022-07-29T06:00:32;7.83;;;4.93;;
17618;SDS011;8928;51.678;6.074;2022-07-29T06:03:19;11.10;;;4.63;;
17618;SDS011;8928;51.678;6.074;2022-07-29T06:06:06;8.17;;;4.77;;
17618;SDS011;8928;51.678;6.074;2022-07-29T06:08:54;8.80;;;5.00;;
17618;SDS011;8928;51.678;6.074;2022-07-29T06:11:41;10.20;;;4.97;;
17618;SDS011;8928;51.678;6.074;2022-07-29T06:14:28;12.37;;;4.97;;
17618;SDS011;8928;51.678;6.074;2022-07-29T06:17:17;12.60;;;5.00;;
17618;SDS011;8928;51.678;6.074;2022-07-29T06:20:04;10.13;;;4.60;;
17618;SDS011;8928;51.678;6.074;2022-07-29T06:22:52;11.67;;;4.70;;
17618;SDS011;8928;51.678;6.074;2022-07-29T06:25:39;12.13;;;4.47;;
17618;SDS011;8928;51.678;6.074;2022-07-29T06:28:26;10.20;;;5.00;;
17618;SDS011;8928;51.678;6.074;2022-07-29T06:31:14;8.57;;;4.53;;
17618;SDS011;8928;51.678;6.074;2022-07-29T06:34:02;10.43;;;4.80;;
17618;SDS011;8928;51.678;6.074;2022-07-29T06:36:49;7.53;;;4.67;;
17618;SDS011;8928;51.678;6.074;2022-07-29T06:39:38;7.77;;;4.60;;
17618;SDS011;8928;51.678;6.074;2022-07-29T06:42:25;10.77;;;4.40;;
17618;SDS011;8928;51.678;6.074;2022-07-29T06:45:12;8.70;;;4.47;;
17618;SDS011;8928;51.678;6.074;2022-07-29T06:47:59;10.63;;;4.87;;
17618;SDS011;8928;51.678;6.074;2022-07-29T06:50:47;9.37;;;4.67;;
17618;SDS011;8928;51.678;6.074;2022-07-29T06:53:34;9.97;;;4.80;;
17618;SDS011;8928;51.678;6.074;2022-07-29T06:56:22;11.67;;;4.90;;
17618;SDS011;8928;51.678;6.074;2022-07-29T06:59:10;9.20;;;5.40;;
17618;SDS011;8928;51.678;6.074;2022-07-29T07:01:58;8.10;;;5.50;;
17618;SDS011;8928;51.678;6.074;2022-07-29T07:04:45;12.23;;;5.80;;
17618;SDS011;8928;51.678;6.074;2022-07-29T07:07:33;12.47;;;6.13;;
17618;SDS011;8928;51.678;6.074;2022-07-29T07:10:20;12.53;;;6.00;;
17618;SDS011;8928;51.678;6.074;2022-07-29T07:13:07;8.73;;;5.80;;
17618;SDS011;8928;51.678;6.074;2022-07-29T07:15:55;10.80;;;6.30;;
17618;SDS011;8928;51.678;6.074;2022-07-29T07:18:42;13.43;;;6.10;;
17618;SDS011;8928;51.678;6.074;2022-07-29T07:21:30;14.90;;;6.50;;
17618;SDS011;8928;51.678;6.074;2022-07-29T07:24:20;8.30;;;6.43;;
17618;SDS011;8928;51.678;6.074;2022-07-29T07:27:07;13.60;;;6.07;;
17618;SDS011;8928;51.678;6.074;2022-07-29T07:29:54;12.63;;;6.47;;
17618;SDS011;8928;51.678;6.074;2022-07-29T07:32:41;12.97;;;6.97;;
17618;SDS011;8928;51.678;6.074;2022-07-29T07:35:28;13.43;;;7.10;;
17618;SDS011;8928;51.678;6.074;2022-07-29T07:38:15;11.70;;;7.10;;
17618;SDS011;8928;51.678;6.074;2022-07-29T07:41:04;11.53;;;7.17;;
17618;SDS011;8928;51.678;6.074;2022-07-29T07:43:51;10.60;;;6.80;;
17618;SDS011;8928;51.678;6.074;2022-07-29T07:46:38;15.63;;;7.10;;
17618;SDS011;8928;51.678;6.074;2022-07-29T07:49:25;13.60;;;6.93;;
17618;SDS011;8928;51.678;6.074;2022-07-29T07:52:12;12.50;;;6.97;;
17618;SDS011;8928;51.678;6.074;2022-07-29T07:55:00;11.63;;;6.40;;
17618;SDS011;8928;51.678;6.074;2022-07-29T07:57:48;10.40;;;6.63;;
17618;SDS011;8928;51.678;6.074;2022-07-29T08:00:36;14.00;;;6.40;;
17618;SDS011;8928;51.678;6.074;2022-07-29T08:03:23;11.23;;;6.00;;
17618;SDS011;8928;51.678;6.074;2022-07-29T08:06:10;8.13;;;6.27;;
17618;SDS011;8928;51.678;6.074;2022-07-29T08:08:57;11.73;;;6.90;;
17618;SDS011;8928;51.678;6.074;2022-07-29T08:11:44;14.80;;;7.17;;
17618;SDS011;8928;51.678;6.074;2022-07-29T08:14:32;12.77;;;6.57;;
17618;SDS011;8928;51.678;6.074;2022-07-29T08:17:20;11.47;;;6.63;;
17618;SDS011;8928;51.678;6.074;2022-07-29T08:20:07;12.13;;;6.97;;
17618;SDS011;8928;51.678;6.074;2022-07-29T08:22:54;10.47;;;6.67;;
17618;SDS011;8928;51.678;6.074;2022-07-29T08:25:41;15.37;;;7.37;;
17618;SDS011;8928;51.678;6.074;2022-07-29T08:28:29;15.77;;;7.00;;
17618;SDS011;8928;51.678;6.074;2022-07-29T08:31:17;12.27;;;6.57;;
17618;SDS011;8928;51.678;6.074;2022-07-29T08:34:04;10.13;;;6.30;;
17618;SDS011;8928;51.678;6.074;2022-07-29T08:36:51;10.10;;;5.97;;
17618;SDS011;8928;51.678;6.074;2022-07-29T08:39:39;13.13;;;5.87;;
17618;SDS011;8928;51.678;6.074;2022-07-29T08:42:26;9.80;;;5.33;;
17618;SDS011;8928;51.678;6.074;2022-07-29T08:45:14;8.43;;;5.23;;
17618;SDS011;8928;51.678;6.074;2022-07-29T08:48:02;10.03;;;5.17;;
17618;SDS011;8928;51.678;6.074;2022-07-29T08:50:52;10.95;;;4.60;;
17618;SDS011;8928;51.678;6.074;2022-07-29T08:53:42;7.50;;;4.82;;
17618;SDS011;8928;51.678;6.074;2022-07-29T08:56:30;9.90;;;5.07;;
17618;SDS011;8928;51.678;6.074;2022-07-29T08:59:19;10.57;;;4.97;;
17618;SDS011;8928;51.678;6.074;2022-07-29T09:02:08;9.10;;;5.03;;
17618;SDS011;8928;51.678;6.074;2022-07-29T09:05:03;8.52;;;4.70;;
17618;SDS011;8928;51.678;6.074;2022-07-29T09:07:51;9.35;;;5.20;;
17618;SDS011;8928;51.678;6.074;2022-07-29T09:10:39;11.57;;;5.25;;
17618;SDS011;8928;51.678;6.074;2022-07-29T09:13:26;6.20;;;4.60;;
17618;SDS011;8928;51.678;6.074;2022-07-29T09:16:13;7.75;;;4.88;;
17618;SDS011;8928;51.678;6.074;2022-07-29T09:21:41;9.00;;;5.00;;
17618;SDS011;8928;51.678;6.074;2022-07-29T09:24:46;11.60;;;5.33;;
17618;SDS011;8928;51.678;6.074;2022-07-29T09:27:33;12.93;;;5.53;;
17618;SDS011;8928;51.678;6.074;2022-07-29T09:30:21;11.13;;;5.40;;
17618;SDS011;8928;51.678;6.074;2022-07-29T09:33:08;10.90;;;5.93;;
17618;SDS011;8928;51.678;6.074;2022-07-29T09:35:59;15.37;;;5.60;;
17618;SDS011;8928;51.678;6.074;2022-07-29T09:38:57;10.87;;;5.60;;
17618;SDS011;8928;51.678;6.074;2022-07-29T09:41:46;9.38;;;5.40;;
17618;SDS011;8928;51.678;6.074;2022-07-29T09:44:42;10.40;;;5.40;;
17618;SDS011;8928;51.678;6.074;2022-07-29T09:47:39;11.15;;;5.55;;
17618;SDS011;8928;51.678;6.074;2022-07-29T09:50:36;9.50;;;5.70;;
17618;SDS011;8928;51.678;6.074;2022-07-29T09:53:31;7.45;;;4.78;;
17618;SDS011;8928;51.678;6.074;2022-07-29T09:56:20;10.63;;;4.80;;
17618;SDS011;8928;51.678;6.074;2022-07-29T09:59:24;10.00;;;5.30;;
17618;SDS011;8928;51.678;6.074;2022-07-29T10:02:11;12.52;;;5.20;;
17618;SDS011;8928;51.678;6.074;2022-07-29T10:04:59;12.38;;;5.45;;
17618;SDS011;8928;51.678;6.074;2022-07-29T10:07:48;11.60;;;5.13;;
17618;SDS011;8928;51.678;6.074;2022-07-29T10:10:37;7.65;;;4.75;;
17618;SDS011;8928;51.678;6.074;2022-07-29T10:13:27;7.55;;;4.70;;
17618;SDS011;8928;51.678;6.074;2022-07-29T10:16:14;7.90;;;4.65;;
17618;SDS011;8928;51.678;6.074;2022-07-29T10:19:03;6.95;;;4.47;;
17618;SDS011;8928;51.678;6.074;2022-07-29T10:21:50;11.20;;;4.60;;
17618;SDS011;8928;51.678;6.074;2022-07-29T10:24:38;9.65;;;4.45;;
17618;SDS011;8928;51.678;6.074;2022-07-29T10:27:25;9.50;;;4.65;;
17618;SDS011;8928;51.678;6.074;2022-07-29T10:30:14;7.82;;;4.25;;
17618;SDS011;8928;51.678;6.074;2022-07-29T10:33:07;13.27;;;5.00;;
17618;SDS011;8928;51.678;6.074;2022-07-29T10:36:07;10.60;;;4.50;;
17618;SDS011;8928;51.678;6.074;2022-07-29T10:39:04;7.78;;;4.30;;
17618;SDS011;8928;51.678;6.074;2022-07-29T10:41:59;8.95;;;4.72;;
17618;SDS011;8928;51.678;6.074;2022-07-29T10:44:56;6.85;;;4.07;;
17618;SDS011;8928;51.678;6.074;2022-07-29T10:47:44;7.65;;;4.55;;
17618;SDS011;8928;51.678;6.074;2022-07-29T10:53:47;10.50;;;3.78;;
17618;SDS011;8928;51.678;6.074;2022-07-29T10:56:35;5.70;;;3.60;;
17618;SDS011;8928;51.678;6.074;2022-07-29T10:59:23;6.00;;;3.70;;
17618;SDS011;8928;51.678;6.074;2022-07-29T11:05:51;6.95;;;3.70;;
17618;SDS011;8928;51.678;6.074;2022-07-29T11:08:42;6.70;;;3.58;;
17618;SDS011;8928;51.678;6.074;2022-07-29T11:11:32;5.88;;;3.67;;
17618;SDS011;8928;51.678;6.074;2022-07-29T11:20:52;6.95;;;3.67;;
17618;SDS011;8928;51.678;6.074;2022-07-29T11:23:39;6.65;;;3.08;;
17618;SDS011;8928;51.678;6.074;2022-07-29T11:26:28;6.70;;;3.35;;
17618;SDS011;8928;51.678;6.074;2022-07-29T11:29:16;9.35;;;3.55;;
17618;SDS011;8928;51.678;6.074;2022-07-29T11:32:08;5.07;;;2.95;;
17618;SDS011;8928;51.678;6.074;2022-07-29T11:35:14;9.27;;;3.00;;
17618;SDS011;8928;51.678;6.074;2022-07-29T11:41:21;7.05;;;3.20;;
17618;SDS011;8928;51.678;6.074;2022-07-29T11:44:09;11.40;;;3.67;;
17618;SDS011;8928;51.678;6.074;2022-07-29T11:46:56;6.85;;;2.92;;
17618;SDS011;8928;51.678;6.074;2022-07-29T11:49:44;5.00;;;3.20;;
17618;SDS011;8928;51.678;6.074;2022-07-29T11:52:34;5.70;;;3.10;;
17618;SDS011;8928;51.678;6.074;2022-07-29T11:55:28;10.13;;;2.90;;
17618;SDS011;8928;51.678;6.074;2022-07-29T11:58:16;6.70;;;3.17;;
17618;SDS011;8928;51.678;6.074;2022-07-29T12:01:08;5.78;;;3.00;;
17618;SDS011;8928;51.678;6.074;2022-07-29T12:04:03;6.03;;;2.83;;
17618;SDS011;8928;51.678;6.074;2022-07-29T12:06:52;6.70;;;2.90;;
17618;SDS011;8928;51.678;6.074;2022-07-29T12:09:41;7.88;;;3.17;;
17618;SDS011;8928;51.678;6.074;2022-07-29T12:12:36;6.75;;;2.97;;
17618;SDS011;8928;51.678;6.074;2022-07-29T12:15:23;7.57;;;2.60;;
17618;SDS011;8928;51.678;6.074;2022-07-29T12:18:14;7.25;;;2.53;;
17618;SDS011;8928;51.678;6.074;2022-07-29T12:21:03;7.13;;;2.67;;
17618;SDS011;8928;51.678;6.074;2022-07-29T12:23:54;6.25;;;2.55;;
17618;SDS011;8928;51.678;6.074;2022-07-29T12:26:50;9.15;;;2.42;;
17618;SDS011;8928;51.678;6.074;2022-07-29T12:29:37;5.18;;;2.47;;
17618;SDS011;8928;51.678;6.074;2022-07-29T12:32:30;5.75;;;2.45;;
17618;SDS011;8928;51.678;6.074;2022-07-29T12:35:19;6.32;;;2.70;;
17618;SDS011;8928;51.678;6.074;2022-07-29T12:38:06;6.03;;;2.42;;
17618;SDS011;8928;51.678;6.074;2022-07-29T12:40:56;5.72;;;2.10;;
17618;SDS011;8928;51.678;6.074;2022-07-29T12:43:52;7.38;;;2.45;;
17618;SDS011;8928;51.678;6.074;2022-07-29T12:46:40;6.93;;;2.40;;
17618;SDS011;8928;51.678;6.074;2022-07-29T12:49:27;7.10;;;2.35;;
17618;SDS011;8928;51.678;6.074;2022-07-29T12:52:25;8.80;;;2.55;;
17618;SDS011;8928;51.678;6.074;2022-07-29T12:55:13;9.30;;;2.60;;
17618;SDS011;8928;51.678;6.074;2022-07-29T12:58:00;4.07;;;2.58;;
17618;SDS011;8928;51.678;6.074;2022-07-29T13:00:49;9.88;;;2.50;;
17618;SDS011;8928;51.678;6.074;2022-07-29T13:03:50;7.57;;;2.28;;
17618;SDS011;8928;51.678;6.074;2022-07-29T13:06:38;7.57;;;2.50;;
17618;SDS011;8928;51.678;6.074;2022-07-29T13:09:35;4.32;;;2.00;;
17618;SDS011;8928;51.678;6.074;2022-07-29T13:12:23;7.38;;;2.40;;
17618;SDS011;8928;51.678;6.074;2022-07-29T13:15:14;7.70;;;2.40;;
17618;SDS011;8928;51.678;6.074;2022-07-29T13:18:04;5.05;;;2.50;;
17618;SDS011;8928;51.678;6.074;2022-07-29T13:21:12;7.18;;;2.60;;
17618;SDS011;8928;51.678;6.074;2022-07-29T13:24:00;4.90;;;2.38;;
17618;SDS011;8928;51.678;6.074;2022-07-29T13:26:48;4.30;;;2.25;;
17618;SDS011;8928;51.678;6.074;2022-07-29T13:29:35;5.93;;;2.35;;
17618;SDS011;8928;51.678;6.074;2022-07-29T13:32:25;6.75;;;2.20;;
17618;SDS011;8928;51.678;6.074;2022-07-29T13:35:15;4.93;;;2.00;;
17618;SDS011;8928;51.678;6.074;2022-07-29T13:38:02;6.55;;;2.80;;
17618;SDS011;8928;51.678;6.074;2022-07-29T13:40:49;5.50;;;2.55;;
17618;SDS011;8928;51.678;6.074;2022-07-29T13:43:37;5.95;;;2.22;;
17618;SDS011;8928;51.678;6.074;2022-07-29T13:46:24;7.93;;;2.00;;
17618;SDS011;8928;51.678;6.074;2022-07-29T13:49:11;4.72;;;2.00;;
17618;SDS011;8928;51.678;6.074;2022-07-29T13:51:59;4.32;;;2.05;;
17618;SDS011;8928;51.678;6.074;2022-07-29T13:54:47;6.55;;;2.25;;
17618;SDS011;8928;51.678;6.074;2022-07-29T13:57:34;4.05;;;2.10;;
17618;SDS011;8928;51.678;6.074;2022-07-29T14:00:21;3.40;;;1.90;;
17618;SDS011;8928;51.678;6.074;2022-07-29T14:03:08;6.28;;;2.10;;
17618;SDS011;8928;51.678;6.074;2022-07-29T14:05:56;5.15;;;1.80;;
17618;SDS011;8928;51.678;6.074;2022-07-29T14:08:46;4.72;;;2.00;;
17618;SDS011;8928;51.678;6.074;2022-07-29T14:11:33;3.40;;;1.77;;
17618;SDS011;8928;51.678;6.074;2022-07-29T14:14:20;6.13;;;1.95;;
17618;SDS011;8928;51.678;6.074;2022-07-29T14:17:07;6.18;;;1.83;;
17618;SDS011;8928;51.678;6.074;2022-07-29T14:19:54;5.38;;;1.83;;
17618;SDS011;8928;51.678;6.074;2022-07-29T14:22:41;5.15;;;1.80;;
17618;SDS011;8928;51.678;6.074;2022-07-29T14:25:30;6.85;;;2.00;;
17618;SDS011;8928;51.678;6.074;2022-07-29T14:28:17;4.63;;;1.90;;
17618;SDS011;8928;51.678;6.074;2022-07-29T14:31:04;7.32;;;2.00;;
17618;SDS011;8928;51.678;6.074;2022-07-29T14:33:51;7.13;;;1.85;;
17618;SDS011;8928;51.678;6.074;2022-07-29T14:36:38;3.75;;;1.60;;
17618;SDS011;8928;51.678;6.074;2022-07-29T14:39:25;4.15;;;1.50;;
17618;SDS011;8928;51.678;6.074;2022-07-29T14:42:14;2.55;;;1.55;;
17618;SDS011;8928;51.678;6.074;2022-07-29T14:45:01;4.07;;;1.60;;
17618;SDS011;8928;51.678;6.074;2022-07-29T14:47:48;3.58;;;1.50;;
17618;SDS011;8928;51.678;6.074;2022-07-29T14:50:36;3.28;;;1.45;;
17618;SDS011;8928;51.678;6.074;2022-07-29T14:53:23;9.23;;;1.67;;
17618;SDS011;8928;51.678;6.074;2022-07-29T14:56:10;3.95;;;1.70;;
17618;SDS011;8928;51.678;6.074;2022-07-29T14:58:58;5.03;;;1.67;;
17618;SDS011;8928;51.678;6.074;2022-07-29T15:01:46;4.60;;;1.80;;
17618;SDS011;8928;51.678;6.074;2022-07-29T15:04:33;3.15;;;1.50;;
17618;SDS011;8928;51.678;6.074;2022-07-29T15:07:20;6.18;;;1.60;;
17618;SDS011;8928;51.678;6.074;2022-07-29T15:10:07;4.00;;;1.80;;
17618;SDS011;8928;51.678;6.074;2022-07-29T15:12:54;5.80;;;1.55;;
17618;SDS011;8928;51.678;6.074;2022-07-29T15:15:43;5.72;;;1.52;;
17618;SDS011;8928;51.678;6.074;2022-07-29T15:18:30;2.30;;;1.50;;
17618;SDS011;8928;51.678;6.074;2022-07-29T15:21:17;7.05;;;1.80;;
17618;SDS011;8928;51.678;6.074;2022-07-29T15:24:05;6.82;;;1.75;;
17618;SDS011;8928;51.678;6.074;2022-07-29T15:26:52;2.97;;;1.50;;
17618;SDS011;8928;51.678;6.074;2022-07-29T15:29:39;3.35;;;1.42;;
17618;SDS011;8928;51.678;6.074;2022-07-29T15:32:28;2.97;;;1.50;;
17618;SDS011;8928;51.678;6.074;2022-07-29T15:35:15;5.97;;;1.58;;
17618;SDS011;8928;51.678;6.074;2022-07-29T15:38:02;4.43;;;1.50;;
17618;SDS011;8928;51.678;6.074;2022-07-29T15:40:49;4.50;;;1.63;;
17618;SDS011;8928;51.678;6.074;2022-07-29T15:43:36;5.03;;;1.70;;
17618;SDS011;8928;51.678;6.074;2022-07-29T15:46:23;3.13;;;1.42;;
17618;SDS011;8928;51.678;6.074;2022-07-29T15:49:30;6.18;;;1.70;;
17618;SDS011;8928;51.678;6.074;2022-07-29T15:52:18;2.70;;;1.40;;
17618;SDS011;8928;51.678;6.074;2022-07-29T15:55:06;3.53;;;1.52;;
17618;SDS011;8928;51.678;6.074;2022-07-29T15:57:53;2.80;;;1.40;;
17618;SDS011;8928;51.678;6.074;2022-07-29T16:00:41;2.95;;;1.60;;
17618;SDS011;8928;51.678;6.074;2022-07-29T16:03:28;3.78;;;1.70;;
17618;SDS011;8928;51.678;6.074;2022-07-29T16:06:16;4.82;;;1.70;;
17618;SDS011;8928;51.678;6.074;2022-07-29T16:09:03;3.55;;;1.52;;
17618;SDS011;8928;51.678;6.074;2022-07-29T16:11:50;4.22;;;1.63;;
17618;SDS011;8928;51.678;6.074;2022-07-29T16:14:38;3.42;;;1.75;;
17618;SDS011;8928;51.678;6.074;2022-07-29T16:17:25;5.72;;;1.73;;
17618;SDS011;8928;51.678;6.074;2022-07-29T16:20:12;5.57;;;1.80;;
17618;SDS011;8928;51.678;6.074;2022-07-29T16:23:01;2.95;;;1.48;;
17618;SDS011;8928;51.678;6.074;2022-07-29T16:25:48;4.68;;;1.60;;
17618;SDS011;8928;51.678;6.074;2022-07-29T16:28:35;4.97;;;1.50;;
17618;SDS011;8928;51.678;6.074;2022-07-29T16:31:22;5.35;;;1.75;;
17618;SDS011;8928;51.678;6.074;2022-07-29T16:34:09;3.40;;;1.65;;
17618;SDS011;8928;51.678;6.074;2022-07-29T16:36:56;2.95;;;1.83;;
17618;SDS011;8928;51.678;6.074;2022-07-29T16:39:45;3.33;;;1.63;;
17618;SDS011;8928;51.678;6.074;2022-07-29T16:42:32;5.80;;;1.90;;
17618;SDS011;8928;51.678;6.074;2022-07-29T16:45:19;4.53;;;1.70;;
17618;SDS011;8928;51.678;6.074;2022-07-29T16:48:06;5.55;;;1.83;;
17618;SDS011;8928;51.678;6.074;2022-07-29T16:50:53;3.65;;;1.65;;
17618;SDS011;8928;51.678;6.074;2022-07-29T16:53:40;5.85;;;1.95;;
17618;SDS011;8928;51.678;6.074;2022-07-29T16:56:30;4.18;;;1.70;;
17618;SDS011;8928;51.678;6.074;2022-07-29T16:59:17;3.95;;;1.88;;
17618;SDS011;8928;51.678;6.074;2022-07-29T17:02:04;3.65;;;1.80;;
17618;SDS011;8928;51.678;6.074;2022-07-29T17:04:51;7.47;;;2.30;;
17618;SDS011;8928;51.678;6.074;2022-07-29T17:07:39;5.78;;;3.90;;
17618;SDS011;8928;51.678;6.074;2022-07-29T17:10:26;7.90;;;2.30;;
17618;SDS011;8928;51.678;6.074;2022-07-29T17:13:15;6.03;;;2.05;;
17618;SDS011;8928;51.678;6.074;2022-07-29T17:16:02;6.38;;;1.88;;
17618;SDS011;8928;51.678;6.074;2022-07-29T17:18:51;4.88;;;2.10;;
17618;SDS011;8928;51.678;6.074;2022-07-29T17:21:38;4.85;;;1.92;;
17618;SDS011;8928;51.678;6.074;2022-07-29T17:24:25;3.75;;;1.77;;
17618;SDS011;8928;51.678;6.074;2022-07-29T17:27:13;9.73;;;2.17;;
17618;SDS011;8928;51.678;6.074;2022-07-29T17:30:02;3.03;;;1.90;;
17618;SDS011;8928;51.678;6.074;2022-07-29T17:32:50;8.95;;;2.30;;
17618;SDS011;8928;51.678;6.074;2022-07-29T17:35:38;4.97;;;2.08;;